Weather reports worldwide

Advertisment
Meßstetten-Appental, Germany (10827): temperature & dewpoint: 18.01.2020 04:00:00 - 24.01.2020 04:00:00 (CET)Meßstetten-Appental, Germany (10827): temperature 5cm & temperature -5cm: 18.01.2020 04:00:00 - 24.01.2020 04:00:00 (CET)Meßstetten-Appental, Germany (10827): temperature -20cm & temperature -100cm: 18.01.2020 04:00:00 - 24.01.2020 04:00:00 (CET)Meßstetten-Appental, Germany (10827): wind speed & gusts: 18.01.2020 04:00:00 - 24.01.2020 04:00:00 (CET)Meßstetten-Appental, Germany (10827): wind direction: 18.01.2020 04:00:00 - 24.01.2020 04:00:00 (CET)Meßstetten-Appental, Germany (10827): visibility: 18.01.2020 04:00:00 - 24.01.2020 04:00:00 (CET)Meßstetten-Appental, Germany (10827): sunshine duration: 18.01.2020 04:00:00 - 24.01.2020 04:00:00 (CET)Meßstetten-Appental, Germany (10827): precipitation: 18.01.2020 04:00:00 - 24.01.2020 04:00:00 (CET)
Date & Time tt [°C] td [°C] tt 5cm [°C] tt -5cm [°C] tt -20cm [°C] tt -100cm [°C] ff [km/h] ff [kn] fx [km/h] fx [kn] dd vv [km] sd [min] rr [mm]
24.01.2020 04:00:00 - - - - - - - - - - - - - -
24.01.2020 03:00:00 -6,1 -7,1 -11,2 -0,5 0,9 4,3 5 3 14 8 SSW 8 0 0,0
24.01.2020 02:00:00 -6,1 -7,1 -10,5 -0,4 0,9 4,3 10 5 14 7 SSW 7 0 0,0
24.01.2020 01:00:00 -6,2 -6,9 -9,8 -0,3 0,9 4,3 5 3 13 7 SSW 6 0 0,0
24.01.2020 00:00:00 -5,7 -6,4 -6,2 -0,3 0,9 4,3 7 4 16 9 S 4,3 0 0,0
23.01.2020 23:00:00 -5,7 -6,3 -5,4 -0,3 0,9 4,3 11 6 18 10 S 0,9 0 0,0
23.01.2020 22:00:00 -5,7 -6,0 -5,1 -0,3 0,9 4,3 6 3 15 8 S 0,3 0 0,0
23.01.2020 21:00:00 -5,7 -6,2 -5,0 -0,3 0,9 4,3 8 4 15 8 SE 2,1 0 0,0
23.01.2020 20:00:00 -5,3 -5,8 -4,4 -0,3 0,9 4,3 8 5 13 7 ESE 1,2 0 0,0
23.01.2020 19:00:00 -5,2 -5,7 -4,7 -0,3 0,9 4,3 8 5 11 6 ESE 0,6 0 0,0
23.01.2020 18:00:00 -4,5 -5,7 -6,4 -0,2 0,9 4,3 10 5 15 8 ESE 7 0 0,0
23.01.2020 17:00:00 -2,4 -5,5 -5,3 -0,2 0,9 4,3 9 5 16 8 E 14 37 0,0
23.01.2020 16:00:00 0,1 -5,5 -2,8 -0,2 0,9 4,3 12 7 20 11 E 25 60 0,0
23.01.2020 15:00:00 2,1 -5,2 -0,5 -0,2 0,9 4,3 14 7 29 16 ENE 26 60 0,0
23.01.2020 14:00:00 2,6 -7,5 0,1 -0,2 1,0 4,3 19 10 30 16 E 45 60 0,0
23.01.2020 13:00:00 1,9 -6,5 -0,3 -0,3 1,0 4,3 18 10 32 18 E 50 60 0,0
23.01.2020 12:00:00 1,7 -7,0 -1,2 -0,3 1,0 4,3 18 10 29 16 E 48 60 0,0
23.01.2020 11:00:00 0,6 -8,7 -2,6 -0,4 1,0 4,4 16 9 27 15 E 44 60 0,0
23.01.2020 10:00:00 0,2 -7,8 -4,2 -0,5 1,0 4,3 15 8 25 14 E 58 56 0,0
23.01.2020 09:00:00 -1,6 -10,4 -7,2 -0,5 1,0 4,3 14 7 22 12 E 45 14 0,0
23.01.2020 08:00:00 -4,2 -8,3 -9,0 -0,4 1,0 4,3 10 5 13 7 E 31 0 0,0
23.01.2020 07:00:00 -4,9 -9,5 -8,5 -0,4 1,0 4,3 13 7 19 11 E 25 0 0,0
23.01.2020 06:00:00 -3,0 -12,0 -8,8 -0,4 1,0 4,4 13 7 19 10 E 47 0 0,0
23.01.2020 05:00:00 -3,7 -11,6 -8,9 -0,4 1,0 4,4 13 7 19 10 E 47 0 0,0
23.01.2020 04:00:00 -4,2 -11,0 -10,1 -0,3 1,0 4,4 6 3 18 10 E 36 0 0,0
23.01.2020 03:00:00 -4,8 -8,6 -8,7 -0,3 1,0 4,4 9 5 19 10 E 24 0 0,0
23.01.2020 02:00:00 -4,5 -10,0 -8,6 -0,3 1,1 4,4 12 7 16 9 E 32 0 0,0
23.01.2020 01:00:00 -3,7 -10,5 -10,5 -0,2 1,1 4,4 8 4 14 8 E 42 0 0,0
23.01.2020 00:00:00 -5,7 -12,1 -10,4 -0,2 1,1 4,4 3 1 11 6 E 49 0 0,0
22.01.2020 23:00:00 -2,5 -12,5 -9,6 -0,2 1,1 4,4 6 3 14 7 E 57 0 0,0
22.01.2020 22:00:00 -2,9 -11,9 -9,7 -0,1 1,1 4,4 9 5 15 8 E 43 0 0,0
22.01.2020 21:00:00 -2,3 -10,8 -7,5 -0,1 1,1 4,4 10 5 21 11 E 38 0 0,0
22.01.2020 20:00:00 -2,4 -5,4 -6,8 -0,1 1,1 4,4 11 6 14 8 E 18 0 0,0
22.01.2020 19:00:00 -3,1 -5,8 -8,6 0,0 1,1 4,4 3 2 9 5 ENE 13 0 0,0
22.01.2020 18:00:00 -4,3 -6,3 -7,4 0,0 1,1 4,4 2 1 5 3 NNE 13 0 0,0
22.01.2020 17:00:00 1,2 -4,3 -6,0 0,0 1,1 4,4 3 2 8 4 NE 21 33 0,0
22.01.2020 16:00:00 4,9 -6,0 -2,9 0,0 1,1 4,4 3 2 9 5 W 50 60 0,0
22.01.2020 15:00:00 6,5 -7,4 0,6 0,0 1,1 4,4 2 1 5 3 ESE 49 60 0,0
22.01.2020 14:00:00 6,7 -7,5 1,8 0,0 1,1 4,4 2 1 9 5 SE 75 60 0,0
22.01.2020 13:00:00 6,2 -11,2 1,3 0,0 1,1 4,4 8 5 12 7 ENE 37 60 0,0
22.01.2020 12:00:00 4,1 -9,0 -0,8 -0,1 1,1 4,4 4 2 7 4 ESE 75 60 0,0
22.01.2020 11:00:00 2,4 -5,9 -1,0 -0,1 1,1 4,4 3 1 6 3 SSW 50 60 0,0
22.01.2020 10:00:00 -1,4 -8,3 -4,1 -0,1 1,1 4,4 3 1 5 3 SE 41 53 0,0
22.01.2020 09:00:00 -4,8 -10,0 -8,6 -0,1 1,1 4,4 2 1 6 4 W 43 14 0,0
22.01.2020 08:00:00 -5,7 -9,4 -9,6 0,0 1,2 4,4 2 1 6 3 S 61 0 0,0
22.01.2020 07:00:00 -5,0 -9,0 -8,9 0,0 1,2 4,4 2 1 8 4 NNE 58 0 0,0
22.01.2020 06:00:00 -5,0 -8,8 -9,0 0,0 1,2 4,4 3 1 6 3 E 36 0 0,0
22.01.2020 05:00:00 -5,3 -10,0 -8,9 0,0 1,2 4,4 3 2 10 5 E 47 0 0,0
22.01.2020 04:00:00 -6,2 -10,7 -8,2 0,0 1,2 4,4 5 3 8 4 E 75 0 0,0
22.01.2020 03:00:00 -5,3 -9,8 -8,5 0,0 1,2 4,4 4 2 7 4 ENE 51 0 0,0
22.01.2020 02:00:00 -7,1 -10,5 -8,6 0,0 1,2 4,4 3 2 6 4 ESE 55 0 0,0
22.01.2020 01:00:00 -6,2 -9,1 -8,9 0,1 1,2 4,4 3 1 6 4 E 46 0 0,0
22.01.2020 00:00:00 -4,1 -8,2 -7,3 0,1 1,2 4,4 4 2 11 6 E 42 0 0,0
21.01.2020 23:00:00 -5,1 -7,5 -7,7 0,1 1,2 4,4 5 3 13 7 E 21 0 0,0
21.01.2020 22:00:00 -6,6 -8,2 -9,3 0,1 1,2 4,4 4 2 8 4 E 13 0 0,0
21.01.2020 21:00:00 -5,7 -7,7 -8,4 0,1 1,2 4,4 3 2 10 5 ENE 12 0 0,0
21.01.2020 20:00:00 -5,7 -7,6 -8,4 0,1 1,2 4,4 4 2 10 5 E 13 0 0,0
21.01.2020 19:00:00 -6,2 -7,7 -8,8 0,1 1,2 4,4 2 1 9 5 ENE 15 0 0,0
21.01.2020 18:00:00 -5,7 -7,5 -7,9 0,2 1,2 4,4 0 0 8 4 N 18 0 0,0
21.01.2020 17:00:00 -3,6 -6,7 -6,6 0,2 1,2 4,4 4 2 11 6 SE 22 32 0,0
21.01.2020 16:00:00 0,3 -5,5 -3,4 0,2 1,2 4,4 10 5 12 7 ESE 49 59 0,0
21.01.2020 15:00:00 2,1 -4,6 -1,5 0,2 1,3 4,4 4 2 11 6 ESE 34 60 0,0
21.01.2020 14:00:00 1,0 -4,0 -0,9 0,2 1,3 4,4 3 2 5 3 ESE 27 60 0,0
21.01.2020 13:00:00 1,9 -4,8 -0,9 0,2 1,3 4,4 2 1 9 5 SSE 27 60 0,0
21.01.2020 12:00:00 -2,6 -6,0 -1,0 0,2 1,3 4,4 4 2 9 5 E 14 60 0,0
21.01.2020 11:00:00 -3,9 -6,1 -2,0 0,2 1,3 4,4 2 1 7 4 S 9 60 0,0
21.01.2020 10:00:00 -6,3 -7,4 -5,5 0,2 1,3 4,4 0 0 7 4 N 4,6 50 0,0
21.01.2020 09:00:00 -7,1 -8,0 -8,9 0,2 1,3 4,4 5 3 10 5 E 5 0 0,0
21.01.2020 08:00:00 -7,2 -8,3 -7,8 0,2 1,3 4,4 5 3 16 8 ESE 5 0 0,0
21.01.2020 07:00:00 -5,4 -6,0 -4,5 0,2 1,3 4,4 11 6 20 11 ESE 1,2 0 0,0
21.01.2020 06:00:00 -5,3 -5,9 -4,4 0,2 1,3 4,4 10 5 18 10 E 0,6 0 0,0
21.01.2020 05:00:00 -5,6 -6,2 -6,7 0,2 1,3 4,4 11 6 16 9 ESE 1,7 0 0,0
21.01.2020 04:00:00 -5,0 -5,6 -4,9 0,2 1,3 4,4 9 5 18 10 E 5 0 0,0
21.01.2020 03:00:00 -4,6 -5,5 -4,6 0,3 1,3 4,4 13 7 22 12 ESE 7 0 0,0
21.01.2020 02:00:00 -4,2 -5,2 -4,4 0,3 1,3 4,4 13 7 22 12 E 8 0 0,0
21.01.2020 01:00:00 -3,7 -4,8 -4,0 0,3 1,3 4,4 14 8 26 14 E 11 0 0,0
21.01.2020 00:00:00 -3,4 -4,8 -3,7 0,3 1,3 4,4 18 10 32 17 E 15 0 0,0
20.01.2020 23:00:00 -3,1 -4,8 -3,4 0,3 1,3 4,4 22 12 36 19 E 18 0 0,0
20.01.2020 22:00:00 -3,0 -4,8 -3,4 0,3 1,3 4,4 23 13 44 24 ESE 21 0 0,0
20.01.2020 21:00:00 -2,7 -4,6 -3,6 0,3 1,4 4,4 21 12 41 22 E 26 0 0,0
20.01.2020 20:00:00 -2,5 -4,7 -3,8 0,3 1,4 4,4 21 11 46 25 E 31 0 0,0
20.01.2020 19:00:00 -2,5 -4,3 -3,6 0,3 1,4 4,4 27 14 46 25 E 21 0 0,0
20.01.2020 18:00:00 -2,2 -4,5 -4,7 0,3 1,4 4,4 24 13 36 19 E 26 0 0,0
20.01.2020 17:00:00 -1,8 -5,2 -5,4 0,4 1,4 4,4 18 10 35 19 E 42 27 0,0
20.01.2020 16:00:00 -0,9 -5,4 -3,8 0,4 1,4 4,4 19 10 38 20 E 53 59 0,0
20.01.2020 15:00:00 -1,0 -5,2 -2,5 0,4 1,4 4,4 21 11 35 19 ENE 46 58 0,0
20.01.2020 14:00:00 -1,5 -4,9 -1,7 0,4 1,4 4,4 16 9 35 19 E 38 54 0,0
20.01.2020 13:00:00 -2,3 -5,3 -2,2 0,4 1,4 4,4 23 13 33 18 E 43 25 0,0
20.01.2020 12:00:00 -2,2 -5,0 -3,0 0,4 1,4 4,4 19 10 32 18 E 39 3 0,0
20.01.2020 11:00:00 -2,7 -4,9 -2,9 0,4 1,4 4,4 19 11 35 19 E 46 27 0,0
20.01.2020 10:00:00 -2,8 -4,8 -3,1 0,4 1,4 4,4 20 11 32 17 E 33 0 0,0
20.01.2020 09:00:00 -2,9 -4,5 -3,4 0,4 1,4 4,4 17 9 29 15 E 32 0 0,0
20.01.2020 08:00:00 -2,3 -4,0 -2,3 0,4 1,4 4,4 22 12 32 17 E 32 0 0,0
20.01.2020 07:00:00 -2,2 -3,3 -2,2 0,4 1,4 4,4 18 10 33 18 ENE 21 0 0,0
20.01.2020 06:00:00 -2,1 -3,9 -2,3 0,4 1,5 4,4 18 10 27 15 ENE 38 0 0,0
20.01.2020 05:00:00 -2,1 -4,2 -2,3 0,4 1,5 4,4 15 8 22 12 ENE 43 0 0,0
20.01.2020 04:00:00 -2,1 -4,0 -2,3 0,4 1,5 4,4 14 8 24 13 ENE 43 0 0,0
20.01.2020 03:00:00 -2,1 -4,8 -2,7 0,4 1,5 4,4 9 5 24 13 ENE 62 0 0,0
20.01.2020 02:00:00 -1,9 -3,8 -2,6 0,4 1,5 4,4 8 5 19 10 ENE 42 0 0,0
20.01.2020 01:00:00 -2,0 -3,6 -2,3 0,4 1,5 4,4 9 5 22 12 ENE 35 0 0,0
20.01.2020 00:00:00 -1,9 -3,5 -2,2 0,4 1,5 4,4 6 4 18 10 NE 21 0 0,0
19.01.2020 23:00:00 -2,0 -3,8 -2,3 0,4 1,5 4,4 8 4 21 12 ENE 31 0 0,0
19.01.2020 22:00:00 -2,0 -3,7 -2,1 0,4 1,5 4,4 13 7 19 11 ENE 30 0 0,0
19.01.2020 21:00:00 -2,5 -4,2 -3,1 0,4 1,6 4,4 6 4 14 8 ENE 28 0 0,0
19.01.2020 20:00:00 -2,1 -3,6 -2,5 0,4 1,6 4,4 7 4 13 7 ENE 28 0 0,0
19.01.2020 19:00:00 -2,4 -3,9 -2,8 0,4 1,6 4,4 5 3 19 10 NNW 37 0 0,0
19.01.2020 18:00:00 -2,0 -3,8 -2,1 0,4 1,6 4,4 7 4 18 10 ENE 45 0 0,0
19.01.2020 17:00:00 -2,0 -4,1 -2,2 0,4 1,6 4,4 10 5 22 12 ENE 46 0 0,4
19.01.2020 16:00:00 -2,0 -3,4 -1,6 0,4 1,6 4,4 4 2 22 12 NNW 1,4 1 0,5
19.01.2020 15:00:00 -1,0 -3,7 -1,2 0,4 1,7 4,4 4 2 13 7 NNE 6 4 0,0
19.01.2020 14:00:00 -1,9 -3,9 -1,4 0,4 1,7 4,4 5 3 22 12 N 41 1 0,0
19.01.2020 13:00:00 -1,9 -3,3 -1,3 0,4 1,7 4,4 11 6 18 10 NNW 1,4 0 0,3
19.01.2020 12:00:00 -1,6 -3,0 -1,3 0,4 1,7 4,4 8 4 16 8 NNW 2,1 0 0,0
19.01.2020 11:00:00 -2,4 -3,0 -2,1 0,5 1,7 4,4 12 7 24 13 NNW 4,1 0 0,4
19.01.2020 10:00:00 -2,3 -3,0 -2,3 0,5 1,8 4,4 8 4 17 9 NNW 15 0 0,0
19.01.2020 09:00:00 -2,4 -3,2 -3,0 0,5 1,8 4,4 12 6 22 12 NNW 21 0 0,1
19.01.2020 08:00:00 -2,4 -3,2 -3,0 0,5 1,8 4,4 7 4 14 8 NW 8 0 0,9
19.01.2020 07:00:00 -2,9 -3,6 -3,6 0,5 1,9 4,4 2 1 5 3 WSW 14 0 0,0
19.01.2020 06:00:00 -2,8 -3,8 -4,6 0,5 1,9 4,4 0 0 11 6 N 22 0 0,0
19.01.2020 05:00:00 -3,8 -4,9 -7,8 0,5 1,9 4,4 3 1 16 9 NNW 24 0 0,0
19.01.2020 04:00:00 -2,4 -3,3 -4,3 0,6 2,0 4,4 7 4 22 12 NNW 25 0 0,0
19.01.2020 03:00:00 -2,2 -3,0 -3,8 0,6 2,0 4,4 9 5 21 11 NW 27 0 0,0
19.01.2020 02:00:00 -2,3 -3,4 -4,9 0,7 2,1 4,4 10 5 22 12 NNW 44 0 0,0
19.01.2020 01:00:00 -1,7 -3,2 -4,0 0,8 2,1 4,4 15 8 21 12 N 48 0 0,0
19.01.2020 00:00:00 -1,3 -3,1 -3,0 0,9 2,2 4,4 5 3 8 5 NW 55 0 0,0
18.01.2020 23:00:00 -1,2 -2,8 -2,6 0,9 2,2 4,4 6 4 16 9 NW 50 0 0,0
18.01.2020 22:00:00 -1,0 -2,0 -2,2 1,0 2,3 4,4 8 4 14 8 WNW 38 0 0,0
18.01.2020 21:00:00 -0,9 -2,0 -2,2 1,1 2,3 4,4 7 4 13 7 WNW 44 0 0,0
18.01.2020 20:00:00 -1,0 -2,2 -3,2 1,2 2,4 4,4 8 4 14 8 WNW 50 0 0,0
18.01.2020 19:00:00 -0,8 -2,1 -2,1 1,4 2,4 4,4 6 3 23 13 W 62 0 0,5
18.01.2020 18:00:00 -0,4 -2,3 -1,4 1,9 2,4 4,4 13 7 23 12 WNW 6 0 0,0
18.01.2020 17:00:00 0,6 -2,4 -1,5 2,5 2,3 4,4 4 2 19 10 W 67 7 0,0
18.01.2020 16:00:00 1,1 -2,7 -0,2 3,2 2,2 4,4 10 5 19 10 WSW 70 3 0,0
18.01.2020 15:00:00 1,4 -2,6 1,2 3,6 2,0 4,4 9 5 25 13 W 75 9 0,0
18.01.2020 14:00:00 1,6 -2,5 1,4 4,1 1,9 4,4 10 5 24 13 W 75 35 0,0
18.01.2020 13:00:00 1,3 -3,1 2,2 3,4 1,9 4,4 15 8 24 13 W 46 39 0,0
18.01.2020 12:00:00 1,0 -2,1 1,2 2,1 1,9 4,4 12 6 21 11 WSW 60 56 0,0
18.01.2020 11:00:00 0,7 -2,1 0,0 0,9 1,9 4,4 10 6 20 11 WSW 62 55 0,0
18.01.2020 10:00:00 0,0 -1,3 -2,4 0,8 1,9 4,4 8 4 11 6 SW 45 10 0,0
18.01.2020 09:00:00 -0,6 -1,3 -2,4 0,7 2,0 4,4 4 2 16 9 NW 24 0 0,0
18.01.2020 08:00:00 0,1 -0,8 -1,3 0,8 2,0 4,4 11 6 20 11 WNW 38 0 0,1
18.01.2020 07:00:00 -0,1 -0,7 -1,2 0,9 2,1 4,4 14 8 30 16 WNW 0,9 0 0,3
18.01.2020 06:00:00 0,5 -0,5 -1,1 1,0 2,1 4,4 7 4 27 15 W 46 0 0,0
18.01.2020 05:00:00 1,1 0,3 -0,8 1,1 2,1 4,4 9 5 18 10 WNW 29 0 0,0
18.01.2020 04:00:00 1,1 0,4 -0,5 1,2 2,2 4,4 9 5 16 8 WNW 36 0 0,0

tt = temperature
td = dewpoint
tt 5cm = temperature 5cm
tt -5cm = temperature -5cm
tt -20cm = temperature -20cm
tt -100cm = temperature -100cm
ff = wind speed
fx = gusts
dd = wind direction
vv = visibility
sd = sunshine duration
rr = precipitation

Next stations